Time;durP1;ratioP1;P1;durP2;ratioP2;P2;SDS_P1;SDS_P2;PMS_P1;PMS_P2;Temp;Humidity;BMP_temperature;BMP_pressure;BME280_temperature;BME280_humidity;BME280_pressure;Samples;Min_cycle;Max_cycle;Signal;HPM_P1;HPM_P2
2020/03/14 00:00:37;;;;;;;11.7;5.3;;;;;;;4.44;78.84668;1008.007;;;;
2020/03/14 00:03:02;;;;;;;12.3;4.9;;;;;;;4.36;78.96875;1007.929;;;;
2020/03/14 00:05:29;;;;;;;11.5;4.1;;;;;;;4.31;78.93652;1007.974;;;;
2020/03/14 00:07:53;;;;;;;9.4;4;;;;;;;4.31;79.51172;1007.941;;;;
2020/03/14 00:10:18;;;;;;;9.9;4;;;;;;;4.37;79.54492;1007.937;;;;
2020/03/14 00:12:43;;;;;;;12.6;4.1;;;;;;;4.36;79.40723;1007.965;;;;
2020/03/14 00:15:08;;;;;;;10.6;4.4;;;;;;;4.37;79.31934;1007.959;;;;
2020/03/14 00:17:33;;;;;;;11.3;4.7;;;;;;;4.31;79.27539;1007.965;;;;
2020/03/14 00:19:58;;;;;;;11.9;4.3;;;;;;;4.3;79.63477;1007.968;;;;
2020/03/14 00:22:23;;;;;;;28.3;15.1;;;;;;;4.3;79.63281;1007.982;;;;
2020/03/14 00:24:49;;;;;;;11.7;5.6;;;;;;;4.21;79.97852;1008.005;;;;
2020/03/14 00:27:13;;;;;;;11.1;4.5;;;;;;;4.07;80.86523;1008.044;;;;
2020/03/14 00:29:39;;;;;;;10.6;4.5;;;;;;;3.99;81.68555;1008.049;;;;
2020/03/14 00:32:04;;;;;;;13.3;5.2;;;;;;;4.03;82.08691;1008.021;;;;
2020/03/14 00:34:29;;;;;;;11;5.3;;;;;;;4.05;81.76563;1008.002;;;;
2020/03/14 00:36:54;;;;;;;15.2;5.6;;;;;;;4.11;81.40137;1007.999;;;;
2020/03/14 00:39:19;;;;;;;11.7;5.4;;;;;;;4.16;81.12988;1008.011;;;;
2020/03/14 00:41:44;;;;;;;11.2;5.2;;;;;;;4.21;80.95801;1007.986;;;;
2020/03/14 00:44:09;;;;;;;13.3;5.4;;;;;;;4.15;80.85742;1008.044;;;;
2020/03/14 00:46:34;;;;;;;11;5.3;;;;;;;4.07;80.81934;1007.978;;;;
2020/03/14 00:49:00;;;;;;;10.5;4.9;;;;;;;4.06;80.9082;1007.992;;;;
2020/03/14 00:51:25;;;;;;;11.8;5.1;;;;;;;3.99;81.3457;1007.981;;;;
2020/03/14 00:53:50;;;;;;;11.7;5.8;;;;;;;3.9;81.64355;1007.986;;;;
2020/03/14 00:56:15;;;;;;;11.9;5.6;;;;;;;3.84;81.95898;1007.962;;;;
2020/03/14 00:58:40;;;;;;;12.6;5.7;;;;;;;3.76;81.98828;1007.964;;;;
2020/03/14 01:01:06;;;;;;;11.6;5.8;;;;;;;3.76;82.24707;1007.949;;;;
2020/03/14 01:03:30;;;;;;;13.4;5.6;;;;;;;3.82;82.28418;1007.905;;;;
2020/03/14 01:05:55;;;;;;;12.5;5.6;;;;;;;3.86;82.23438;1007.915;;;;
2020/03/14 01:08:20;;;;;;;11.9;5.7;;;;;;;3.82;82.33984;1007.899;;;;
2020/03/14 01:10:45;;;;;;;11.6;5.7;;;;;;;3.82;82.0791;1007.892;;;;
2020/03/14 01:13:10;;;;;;;14.8;7;;;;;;;3.78;82.01465;1007.865;;;;
2020/03/14 01:15:36;;;;;;;11.6;5.8;;;;;;;3.84;82.03809;1007.879;;;;
2020/03/14 01:18:01;;;;;;;12.5;6;;;;;;;3.83;82.01465;1007.914;;;;
2020/03/14 01:20:26;;;;;;;12;5.5;;;;;;;3.9;82.13965;1007.915;;;;
2020/03/14 01:23:11;;;;;;;11.8;5.5;;;;;;;3.95;81.87988;1007.877;;;;
2020/03/14 01:25:16;;;;;;;10.3;5;;;;;;;3.93;81.86328;1007.848;;;;
2020/03/14 01:27:42;;;;;;;10.2;5;;;;;;;3.98;81.89648;1007.88;;;;
2020/03/14 01:30:06;;;;;;;11.1;5.5;;;;;;;4.01;81.69824;1007.86;;;;
2020/03/14 01:32:32;;;;;;;10.3;5.1;;;;;;;4.05;81.29004;1007.857;;;;
2020/03/14 01:34:57;;;;;;;12.5;5.2;;;;;;;3.79;81.41113;1007.811;;;;
2020/03/14 01:37:22;;;;;;;11.2;5.3;;;;;;;3.68;81.97266;1007.802;;;;
2020/03/14 01:39:47;;;;;;;10.3;5;;;;;;;3.7;81.82031;1007.816;;;;
2020/03/14 01:42:12;;;;;;;11.5;4.8;;;;;;;3.73;81.99414;1007.757;;;;
2020/03/14 01:44:37;;;;;;;10.3;4.5;;;;;;;3.73;82.03906;1007.712;;;;
2020/03/14 01:47:02;;;;;;;9.7;4.3;;;;;;;3.76;81.88867;1007.685;;;;
2020/03/14 01:49:27;;;;;;;10.9;4.4;;;;;;;3.74;81.70508;1007.672;;;;
2020/03/14 01:51:53;;;;;;;9.6;4.2;;;;;;;3.7;81.70703;1007.722;;;;
2020/03/14 01:54:18;;;;;;;11.5;4.5;;;;;;;3.52;82.37109;1007.703;;;;
2020/03/14 01:56:43;;;;;;;9.6;4.8;;;;;;;3.24;83.61133;1007.666;;;;
2020/03/14 01:59:08;;;;;;;11.7;4.7;;;;;;;3.2;84.1543;1007.647;;;;
2020/03/14 02:01:33;;;;;;;9.2;4.3;;;;;;;3.36;84.13184;1007.738;;;;
2020/03/14 02:03:58;;;;;;;9.8;4.6;;;;;;;3.55;83.35645;1007.727;;;;
2020/03/14 02:06:23;;;;;;;11.3;4.8;;;;;;;3.55;82.66895;1007.681;;;;
2020/03/14 02:08:48;;;;;;;9.9;4.4;;;;;;;3.51;82.81934;1007.606;;;;
2020/03/14 02:11:13;;;;;;;10.3;4.5;;;;;;;3.51;82.96582;1007.595;;;;
2020/03/14 02:13:38;;;;;;;10.5;4.5;;;;;;;3.48;83.49023;1007.567;;;;
2020/03/14 02:16:04;;;;;;;10.2;4.8;;;;;;;3.53;82.82324;1007.61;;;;
2020/03/14 02:18:29;;;;;;;10.3;4.8;;;;;;;3.57;83.16797;1007.614;;;;
2020/03/14 02:20:54;;;;;;;11.3;4.6;;;;;;;3.56;83.22461;1007.62;;;;
2020/03/14 02:23:19;;;;;;;9.6;4.7;;;;;;;3.58;82.93359;1007.549;;;;
2020/03/14 02:25:44;;;;;;;9;4.4;;;;;;;3.63;82.52539;1007.593;;;;
2020/03/14 02:28:09;;;;;;;9.5;4.7;;;;;;;3.57;82.50391;1007.582;;;;
2020/03/14 02:30:34;;;;;;;9.4;4.3;;;;;;;3.52;82.51758;1007.511;;;;
2020/03/14 02:33:00;;;;;;;9.8;4.8;;;;;;;3.3;83.28613;1007.491;;;;
2020/03/14 02:35:24;;;;;;;9.5;4.5;;;;;;;3.23;83.51953;1007.514;;;;
2020/03/14 02:37:50;;;;;;;13.3;4.7;;;;;;;3.26;83.66016;1007.531;;;;
2020/03/14 02:40:15;;;;;;;8.6;4.6;;;;;;;3.36;83.21777;1007.597;;;;
2020/03/14 02:42:40;;;;;;;10.4;4.9;;;;;;;3.24;83.21777;1007.513;;;;
2020/03/14 02:45:05;;;;;;;10.3;4.6;;;;;;;3.32;83.14355;1007.533;;;;
2020/03/14 02:47:30;;;;;;;8.9;4.4;;;;;;;3.19;83.88184;1007.485;;;;
2020/03/14 02:49:55;;;;;;;11.2;4.6;;;;;;;3.06;84.50977;1007.5;;;;
2020/03/14 02:52:20;;;;;;;10.5;4.7;;;;;;;3.09;84.70801;1007.467;;;;
2020/03/14 02:54:45;;;;;;;10.5;5.2;;;;;;;3.02;84.98438;1007.445;;;;
2020/03/14 02:57:10;;;;;;;10.7;4.8;;;;;;;3.12;84.57617;1007.42;;;;
2020/03/14 02:59:36;;;;;;;11.3;5.1;;;;;;;3.27;83.89941;1007.427;;;;
2020/03/14 03:02:01;;;;;;;11.6;4.6;;;;;;;3.3;83.44336;1007.441;;;;
2020/03/14 03:04:26;;;;;;;10.8;4.7;;;;;;;3.33;83.12207;1007.437;;;;
2020/03/14 03:06:51;;;;;;;12.3;4.6;;;;;;;3.28;83.5752;1007.424;;;;
2020/03/14 03:09:16;;;;;;;10.3;4.6;;;;;;;3.32;84.21289;1007.478;;;;
2020/03/14 03:11:41;;;;;;;12.8;5.1;;;;;;;3.47;84.4668;1007.431;;;;
2020/03/14 03:14:06;;;;;;;10.8;4.5;;;;;;;3.64;83.58789;1007.461;;;;
2020/03/14 03:16:32;;;;;;;9;4.3;;;;;;;3.65;83.35352;1007.525;;;;
2020/03/14 03:18:57;;;;;;;8.7;4.4;;;;;;;3.64;83.39844;1007.408;;;;
2020/03/14 03:21:22;;;;;;;12;4.7;;;;;;;3.6;83.70313;1007.457;;;;
2020/03/14 03:23:47;;;;;;;9.4;4.9;;;;;;;3.6;84.25488;1007.401;;;;
2020/03/14 03:26:12;;;;;;;9.9;4.7;;;;;;;3.74;83.82324;1007.466;;;;
2020/03/14 03:28:37;;;;;;;9.7;4.8;;;;;;;3.86;83.51953;1007.44;;;;
2020/03/14 03:31:02;;;;;;;10.7;5.1;;;;;;;3.9;83.20117;1007.48;;;;
2020/03/14 03:33:27;;;;;;;9.5;4.3;;;;;;;3.98;82.82031;1007.515;;;;
2020/03/14 03:35:52;;;;;;;10.1;4.2;;;;;;;4;82.49707;1007.538;;;;
2020/03/14 03:38:17;;;;;;;10.6;4.9;;;;;;;3.9;82.98535;1007.612;;;;
2020/03/14 03:40:42;;;;;;;13.7;5.6;;;;;;;4.06;82.87012;1007.551;;;;
2020/03/14 03:43:08;;;;;;;9.5;4.7;;;;;;;4.12;82.80371;1007.566;;;;
2020/03/14 03:45:32;;;;;;;10.3;4.7;;;;;;;4.08;82.75;1007.601;;;;
2020/03/14 03:47:58;;;;;;;9.1;4.7;;;;;;;4.09;82.83008;1007.619;;;;
2020/03/14 03:50:23;;;;;;;9.8;4.9;;;;;;;4.13;82.87305;1007.589;;;;
2020/03/14 03:52:48;;;;;;;11.4;5;;;;;;;4.16;83.02539;1007.639;;;;
2020/03/14 03:55:13;;;;;;;9.9;4.2;;;;;;;4.24;82.07031;1007.624;;;;
2020/03/14 03:57:38;;;;;;;9.4;4.3;;;;;;;4.18;81.41602;1007.619;;;;
2020/03/14 04:02:27;;;;;;;10.1;4.3;;;;;;;4.01;81.96875;1007.61;;;;
2020/03/14 04:04:52;;;;;;;12;4.6;;;;;;;3.79;82.97363;1007.637;;;;
2020/03/14 04:07:17;;;;;;;10;4.5;;;;;;;3.67;83.58398;1007.653;;;;
2020/03/14 04:09:43;;;;;;;8.3;4.3;;;;;;;3.59;84.2998;1007.638;;;;
2020/03/14 04:12:08;;;;;;;11.8;4.2;;;;;;;3.73;84.41699;1007.661;;;;
2020/03/14 04:14:33;;;;;;;9;4.1;;;;;;;3.93;83.98242;1007.714;;;;
2020/03/14 04:16:58;;;;;;;8.9;4;;;;;;;3.93;83.41895;1007.689;;;;
2020/03/14 04:19:23;;;;;;;9.8;4.3;;;;;;;3.87;83.16211;1007.692;;;;
2020/03/14 04:21:48;;;;;;;11;4.3;;;;;;;3.68;84.55469;1007.664;;;;
2020/03/14 04:24:13;;;;;;;9.1;4.1;;;;;;;3.79;83.58398;1007.661;;;;
2020/03/14 04:26:38;;;;;;;9;3.8;;;;;;;3.82;83.56836;1007.682;;;;
2020/03/14 04:29:03;;;;;;;9.7;4.2;;;;;;;3.93;83.75684;1007.662;;;;
2020/03/14 04:31:28;;;;;;;7.8;4.2;;;;;;;4.05;83.25195;1007.663;;;;
2020/03/14 04:33:53;;;;;;;11;4.3;;;;;;;4.12;83.04102;1007.602;;;;
2020/03/14 04:36:19;;;;;;;9.3;4.1;;;;;;;4.16;82.87793;1007.603;;;;
2020/03/14 04:38:45;;;;;;;9.9;3.9;;;;;;;4.13;82.39941;1007.561;;;;
2020/03/14 04:41:09;;;;;;;10;4;;;;;;;4;82.76953;1007.582;;;;
2020/03/14 04:43:34;;;;;;;8.1;3.9;;;;;;;4.06;82.57715;1007.558;;;;
2020/03/14 04:45:59;;;;;;;9.3;4.3;;;;;;;4.04;82.44824;1007.557;;;;
2020/03/14 04:48:24;;;;;;;9.4;4.1;;;;;;;3.99;82.64355;1007.584;;;;
2020/03/14 04:50:49;;;;;;;9.6;4.1;;;;;;;3.85;83.28125;1007.615;;;;
2020/03/14 04:53:17;;;;;;;9.9;4.1;;;;;;;3.99;83.20605;1007.568;;;;
2020/03/14 04:55:40;;;;;;;11.3;4.2;;;;;;;4.07;82.83789;1007.591;;;;
2020/03/14 04:58:05;;;;;;;9.7;4.5;;;;;;;4.05;82.8457;1007.554;;;;
2020/03/14 05:00:30;;;;;;;9.6;4;;;;;;;4.05;82.93652;1007.556;;;;
2020/03/14 05:02:55;;;;;;;9.2;4;;;;;;;4.08;82.69336;1007.495;;;;
2020/03/14 05:05:20;;;;;;;9.1;4;;;;;;;4.06;82.79102;1007.516;;;;
2020/03/14 05:07:45;;;;;;;9.5;4.1;;;;;;;4.02;83.12109;1007.544;;;;
2020/03/14 05:10:10;;;;;;;7.8;4.1;;;;;;;4.01;83.13086;1007.498;;;;
2020/03/14 05:12:35;;;;;;;8.6;3.7;;;;;;;3.99;82.94434;1007.493;;;;
2020/03/14 05:15:01;;;;;;;8.2;3.9;;;;;;;3.94;83.00391;1007.513;;;;
2020/03/14 05:17:26;;;;;;;12.3;3.8;;;;;;;3.74;84.0918;1007.531;;;;
2020/03/14 05:19:51;;;;;;;9.6;3.8;;;;;;;3.75;84.15039;1007.481;;;;
2020/03/14 05:22:16;;;;;;;11;3.8;;;;;;;3.75;84.05957;1007.481;;;;
2020/03/14 05:24:41;;;;;;;6.7;3.2;;;;;;;3.79;83.25879;1007.503;;;;
2020/03/14 05:27:06;;;;;;;7.8;3.2;;;;;;;3.76;83.36328;1007.6;;;;
2020/03/14 05:29:31;;;;;;;11.7;3.8;;;;;;;3.75;83.31641;1007.608;;;;
2020/03/14 05:31:56;;;;;;;8.2;3.6;;;;;;;3.8;83.27051;1007.619;;;;
2020/03/14 05:34:22;;;;;;;10.3;3.5;;;;;;;3.84;83.03125;1007.599;;;;
2020/03/14 05:36:47;;;;;;;9;3.3;;;;;;;4.04;82.63965;1007.543;;;;
2020/03/14 05:39:12;;;;;;;7.8;3.8;;;;;;;4.21;82.62988;1007.466;;;;
2020/03/14 05:41:37;;;;;;;8;3.6;;;;;;;4.22;82.70801;1007.425;;;;
2020/03/14 05:44:02;;;;;;;9.6;3.4;;;;;;;3.95;81.5752;1007.477;;;;
2020/03/14 05:46:27;;;;;;;7.5;3.4;;;;;;;3.93;82.02148;1007.446;;;;
2020/03/14 05:48:52;;;;;;;9.5;3.2;;;;;;;3.82;82.10352;1007.497;;;;
2020/03/14 05:51:17;;;;;;;8.6;3.2;;;;;;;3.76;82.38281;1007.484;;;;
2020/03/14 05:53:42;;;;;;;10;3.2;;;;;;;3.68;82.47949;1007.478;;;;
2020/03/14 05:56:07;;;;;;;7.8;3.3;;;;;;;3.69;82.25781;1007.506;;;;
2020/03/14 05:58:33;;;;;;;9.6;3.5;;;;;;;3.66;82.27539;1007.503;;;;
2020/03/14 06:00:58;;;;;;;7.4;3.2;;;;;;;3.65;82.30566;1007.485;;;;
2020/03/14 06:03:23;;;;;;;8.2;3.4;;;;;;;3.7;81.94434;1007.51;;;;
2020/03/14 06:05:48;;;;;;;9.8;3.4;;;;;;;3.83;81.6543;1007.534;;;;
2020/03/14 06:08:13;;;;;;;7.5;3.1;;;;;;;3.95;81.03418;1007.459;;;;
2020/03/14 06:10:38;;;;;;;9.2;3;;;;;;;3.95;80.8877;1007.444;;;;
2020/03/14 06:13:03;;;;;;;8.2;3.1;;;;;;;3.97;80.82324;1007.458;;;;
2020/03/14 06:15:28;;;;;;;7.8;2.8;;;;;;;4.04;80.59863;1007.4;;;;
2020/03/14 06:17:54;;;;;;;7.9;3.3;;;;;;;4.03;80.59863;1007.377;;;;
2020/03/14 06:20:19;;;;;;;8.5;3.1;;;;;;;4.07;80.30078;1007.413;;;;
2020/03/14 06:22:44;;;;;;;8.7;3;;;;;;;4.07;80.59473;1007.414;;;;
2020/03/14 06:25:09;;;;;;;6.6;3;;;;;;;4.28;80.33984;1007.449;;;;
2020/03/14 06:27:34;;;;;;;8.4;2.9;;;;;;;4.26;79.77246;1007.538;;;;
2020/03/14 06:29:59;;;;;;;9;3.2;;;;;;;4.45;79.17578;1007.578;;;;
2020/03/14 06:32:24;;;;;;;7.1;3.1;;;;;;;4.55;78.78809;1007.552;;;;
2020/03/14 06:34:49;;;;;;;6.6;3.3;;;;;;;4.58;78.63672;1007.555;;;;
2020/03/14 06:37:14;;;;;;;6.7;3.1;;;;;;;4.47;78.75;1007.561;;;;
2020/03/14 06:39:39;;;;;;;6.8;2.9;;;;;;;4.43;78.87891;1007.582;;;;
2020/03/14 06:42:04;;;;;;;7.6;2.9;;;;;;;4.24;79.58887;1007.615;;;;
2020/03/14 06:44:30;;;;;;;7.1;2.9;;;;;;;4.47;78.88574;1007.524;;;;
2020/03/14 06:46:55;;;;;;;8.5;3.1;;;;;;;4.4;78.92871;1007.531;;;;
2020/03/14 06:49:20;;;;;;;8;2.8;;;;;;;4.33;79.24414;1007.468;;;;
2020/03/14 06:51:45;;;;;;;10.5;3.1;;;;;;;4.32;79.55664;1007.401;;;;
2020/03/14 06:54:10;;;;;;;8.8;3.3;;;;;;;4.3;79.86035;1007.455;;;;
2020/03/14 06:56:35;;;;;;;9.9;3.6;;;;;;;4.34;79.73145;1007.428;;;;
2020/03/14 06:59:00;;;;;;;7.4;2.7;;;;;;;4.41;79.4873;1007.447;;;;
2020/03/14 07:01:25;;;;;;;7.4;2.9;;;;;;;4.55;79.30762;1007.381;;;;
2020/03/14 07:03:50;;;;;;;5.5;2.6;;;;;;;4.64;78.89453;1007.404;;;;
2020/03/14 07:06:15;;;;;;;9.4;2.8;;;;;;;4.73;78.62891;1007.471;;;;
2020/03/14 07:08:40;;;;;;;6.4;2.6;;;;;;;4.87;78.02148;1007.54;;;;
2020/03/14 07:11:05;;;;;;;6.8;2.5;;;;;;;4.89;77.85645;1007.59;;;;
2020/03/14 07:13:31;;;;;;;9.1;3;;;;;;;5.12;77.57227;1007.618;;;;
2020/03/14 07:15:56;;;;;;;9;2.7;;;;;;;5.31;76.11328;1007.636;;;;
2020/03/14 07:18:21;;;;;;;8.3;2.4;;;;;;;5.44;75.43555;1007.727;;;;
2020/03/14 07:20:46;;;;;;;6.9;2.5;;;;;;;5.63;74.59668;1007.714;;;;
2020/03/14 07:23:11;;;;;;;7.1;2.7;;;;;;;5.77;74.54199;1007.767;;;;
2020/03/14 07:25:36;;;;;;;7.5;2.5;;;;;;;6.05;74.06836;1007.802;;;;
2020/03/14 07:28:01;;;;;;;7.5;2.4;;;;;;;6.93;71.15527;1007.804;;;;
2020/03/14 07:30:26;;;;;;;5;2.2;;;;;;;7.44;69.44629;1007.834;;;;
2020/03/14 07:32:51;;;;;;;7.3;2.5;;;;;;;7.58;68.34277;1007.83;;;;
2020/03/14 07:35:16;;;;;;;7.1;2.7;;;;;;;7.47;68.38086;1007.872;;;;
2020/03/14 07:37:41;;;;;;;7.2;2.4;;;;;;;7.54;69.08594;1007.892;;;;
2020/03/14 07:40:07;;;;;;;6.3;2.3;;;;;;;7.55;69.54199;1007.876;;;;
2020/03/14 07:42:32;;;;;;;6.7;2.4;;;;;;;7.53;68.35742;1007.942;;;;
2020/03/14 07:44:57;;;;;;;7.4;2.8;;;;;;;7.35;68.95313;1007.88;;;;
2020/03/14 07:47:22;;;;;;;6;2.4;;;;;;;7.92;66.89551;1007.969;;;;
2020/03/14 07:49:47;;;;;;;7;2.8;;;;;;;8.76;65.37207;1008.034;;;;
2020/03/14 07:52:12;;;;;;;6.2;2.5;;;;;;;9.7;61.50586;1008.067;;;;
2020/03/14 07:54:37;;;;;;;8.3;2.6;;;;;;;9.64;62.26074;1008.024;;;;
2020/03/14 07:57:02;;;;;;;6.6;2.8;;;;;;;9.84;61.91309;1008.102;;;;
2020/03/14 07:59:27;;;;;;;6.7;2.5;;;;;;;11.29;57.4541;1008.05;;;;
2020/03/14 08:01:52;;;;;;;7.1;2.8;;;;;;;12.55;53.87207;1008.096;;;;
2020/03/14 08:04:17;;;;;;;7.5;2.5;;;;;;;12.94;51.21484;1008.07;;;;
2020/03/14 08:06:42;;;;;;;6.7;2.7;;;;;;;12.73;51.38574;1008.124;;;;
2020/03/14 08:09:07;;;;;;;7.7;2.7;;;;;;;12.7;51.04785;1008.137;;;;
2020/03/14 08:11:33;;;;;;;6.1;2.5;;;;;;;12.22;51.45117;1008.177;;;;
2020/03/14 08:13:58;;;;;;;7.7;2.7;;;;;;;12.22;51.91113;1008.155;;;;
2020/03/14 08:16:23;;;;;;;9.1;2.8;;;;;;;11.81;52.67773;1008.155;;;;
2020/03/14 08:18:48;;;;;;;5.6;2.3;;;;;;;12.38;51.9873;1008.237;;;;
2020/03/14 08:21:13;;;;;;;5.8;2.5;;;;;;;13.83;48.93164;1008.21;;;;
2020/03/14 08:23:38;;;;;;;8.1;2.3;;;;;;;14.09;47.44922;1008.226;;;;
2020/03/14 08:26:03;;;;;;;7.6;2.5;;;;;;;13.72;47.99609;1008.214;;;;
2020/03/14 08:28:28;;;;;;;4.5;2;;;;;;;15.4;44.5;1008.255;;;;
2020/03/14 08:30:53;;;;;;;6.7;2.3;;;;;;;15.99;41.95215;1008.25;;;;
2020/03/14 08:33:19;;;;;;;5.9;2.4;;;;;;;14.47;45.22461;1008.258;;;;
2020/03/14 08:35:44;;;;;;;5.9;2.2;;;;;;;13.69;47.05859;1008.244;;;;
2020/03/14 08:38:09;;;;;;;7.6;2.6;;;;;;;13.34;47.13672;1008.302;;;;
2020/03/14 08:40:35;;;;;;;7.2;2.5;;;;;;;13.25;47.42578;1008.331;;;;
2020/03/14 08:42:59;;;;;;;8.4;2.3;;;;;;;13;48.45898;1008.317;;;;
2020/03/14 08:45:25;;;;;;;6.6;2.4;;;;;;;13.35;47.79395;1008.315;;;;
2020/03/14 08:47:50;;;;;;;7;2.6;;;;;;;13.33;47.36523;1008.311;;;;
2020/03/14 08:50:15;;;;;;;6.5;2.6;;;;;;;12.7;49.37988;1008.35;;;;
2020/03/14 08:52:40;;;;;;;7;2.9;;;;;;;13.07;49.19141;1008.293;;;;
2020/03/14 08:55:05;;;;;;;7;2.5;;;;;;;14.31;46.15723;1008.255;;;;
2020/03/14 08:57:30;;;;;;;7.5;2.8;;;;;;;15.04;43.3418;1008.307;;;;
2020/03/14 08:59:55;;;;;;;7.6;2.9;;;;;;;15.61;41.9502;1008.33;;;;
2020/03/14 09:02:21;;;;;;;6.9;2.7;;;;;;;15.3;42.88086;1008.333;;;;
2020/03/14 09:04:46;;;;;;;7.8;2.3;;;;;;;14.95;43.34375;1008.299;;;;
2020/03/14 09:07:11;;;;;;;7.1;2.7;;;;;;;14.26;45.1123;1008.307;;;;
2020/03/14 09:09:36;;;;;;;11.6;2.7;;;;;;;14.46;45.47949;1008.24;;;;
2020/03/14 09:12:01;;;;;;;5.5;2.3;;;;;;;15.5;42.82031;1008.261;;;;
2020/03/14 09:14:26;;;;;;;7.5;2.6;;;;;;;15.67;42.32715;1008.279;;;;
2020/03/14 09:16:52;;;;;;;7;2.4;;;;;;;16.46;40.34863;1008.258;;;;
2020/03/14 09:19:17;;;;;;;8.6;2.6;;;;;;;15.15;42.49609;1008.263;;;;
2020/03/14 09:21:42;;;;;;;7.9;2.8;;;;;;;16.08;40.87012;1008.268;;;;
2020/03/14 09:24:07;;;;;;;7.1;2.4;;;;;;;16.85;39.91992;1008.29;;;;
2020/03/14 09:26:32;;;;;;;7.3;2.7;;;;;;;18.32;36.44141;1008.242;;;;
2020/03/14 09:28:58;;;;;;;7.5;2.4;;;;;;;17.03;38.3916;1008.3;;;;
2020/03/14 09:31:23;;;;;;;7;2.2;;;;;;;15.75;41.29199;1008.194;;;;
2020/03/14 09:33:48;;;;;;;6.6;2.6;;;;;;;17.32;38.25391;1008.241;;;;
2020/03/14 09:36:13;;;;;;;6;2.3;;;;;;;18.71;35.22559;1008.214;;;;
2020/03/14 09:38:38;;;;;;;6.3;2.6;;;;;;;19.34;33.47656;1008.233;;;;
2020/03/14 09:41:04;;;;;;;4.8;2.2;;;;;;;18.54;34.11523;1008.218;;;;
2020/03/14 09:43:29;;;;;;;5.4;1.8;;;;;;;18.98;33.41504;1008.26;;;;
2020/03/14 09:45:54;;;;;;;8.4;2.6;;;;;;;17.75;36.20801;1008.274;;;;
2020/03/14 09:48:19;;;;;;;7.9;2.4;;;;;;;19.1;33.62207;1008.253;;;;
2020/03/14 09:50:44;;;;;;;8.9;2.4;;;;;;;19.33;33.58105;1008.236;;;;
2020/03/14 09:53:09;;;;;;;7.8;2.4;;;;;;;18.68;33.99902;1008.247;;;;
2020/03/14 09:55:34;;;;;;;9.2;2.7;;;;;;;18.76;34.57617;1008.282;;;;
2020/03/14 09:58:00;;;;;;;8.1;3;;;;;;;19.11;33.7168;1008.256;;;;
2020/03/14 10:00:25;;;;;;;7.4;2.4;;;;;;;18.36;34.49805;1008.259;;;;
2020/03/14 10:02:50;;;;;;;9.3;2.6;;;;;;;16.55;38.05859;1008.306;;;;
2020/03/14 10:05:15;;;;;;;8.6;2.6;;;;;;;17.13;37.35352;1008.307;;;;
2020/03/14 10:07:40;;;;;;;7.8;2.4;;;;;;;17.27;36.86621;1008.336;;;;
2020/03/14 10:10:05;;;;;;;10;2.6;;;;;;;16.83;37.35156;1008.26;;;;
2020/03/14 10:12:30;;;;;;;6.6;2.2;;;;;;;15.72;39.25;1008.194;;;;
2020/03/14 10:14:55;;;;;;;8.2;2.8;;;;;;;15.78;39.8125;1008.134;;;;
2020/03/14 10:17:21;;;;;;;6.9;2.4;;;;;;;18.01;36.03125;1008.162;;;;
2020/03/14 10:19:46;;;;;;;9.3;2.6;;;;;;;18.38;34.94336;1008.138;;;;
2020/03/14 10:22:11;;;;;;;7.8;2.5;;;;;;;16.55;38.04785;1008.18;;;;
2020/03/14 10:24:36;;;;;;;8.6;2.7;;;;;;;15.97;39.91016;1008.112;;;;
2020/03/14 10:27:02;;;;;;;8.3;3.1;;;;;;;15.25;40.42285;1008.115;;;;
2020/03/14 10:29:27;;;;;;;8.6;2.8;;;;;;;15.22;41.90137;1008.167;;;;
2020/03/14 10:31:52;;;;;;;8.4;2.8;;;;;;;15.18;40.28906;1008.122;;;;
2020/03/14 10:34:17;;;;;;;8.3;2.6;;;;;;;15.64;40.85254;1008.114;;;;
2020/03/14 10:36:42;;;;;;;9;2.5;;;;;;;15.29;40.2998;1008.099;;;;
2020/03/14 10:39:08;;;;;;;9.9;2.8;;;;;;;16.24;39.37793;1008.049;;;;
2020/03/14 10:41:33;;;;;;;9.1;2.8;;;;;;;16.42;38.4541;1008.09;;;;
2020/03/14 10:43:58;;;;;;;8.2;2.9;;;;;;;16.21;39.02734;1008.067;;;;
2020/03/14 10:46:23;;;;;;;9.2;3.1;;;;;;;16.77;38.57715;1008.073;;;;
2020/03/14 10:48:48;;;;;;;10.8;2.9;;;;;;;16.11;39.28516;1008.033;;;;
2020/03/14 10:51:13;;;;;;;7.7;2.7;;;;;;;16.54;38.89355;1008.044;;;;
2020/03/14 10:53:39;;;;;;;6.9;2.6;;;;;;;16.68;38.4082;1008.016;;;;
2020/03/14 10:56:04;;;;;;;9.7;3.3;;;;;;;15.91;38.375;1007.99;;;;
2020/03/14 10:58:29;;;;;;;8.7;2.7;;;;;;;14.96;40.60449;1007.962;;;;
2020/03/14 11:00:54;;;;;;;8;2.8;;;;;;;14.7;40.90332;1008.009;;;;
2020/03/14 11:03:19;;;;;;;12.3;3.6;;;;;;;15.03;40.57715;1007.963;;;;
2020/03/14 11:05:45;;;;;;;10.1;3.1;;;;;;;14.17;41.36133;1007.969;;;;
2020/03/14 11:08:10;;;;;;;10.6;3;;;;;;;14.1;42.2207;1007.948;;;;
2020/03/14 11:10:35;;;;;;;7.5;2.6;;;;;;;14.64;42.50488;1007.96;;;;
2020/03/14 11:13:00;;;;;;;9.4;3;;;;;;;15.17;41.13281;1008.004;;;;
2020/03/14 11:15:25;;;;;;;8.7;2.6;;;;;;;15.61;41.18555;1007.99;;;;
2020/03/14 11:17:51;;;;;;;9.5;2.8;;;;;;;15.34;40.77832;1008.018;;;;
2020/03/14 11:20:16;;;;;;;8.6;2.6;;;;;;;15.42;39.80273;1007.979;;;;
2020/03/14 11:22:42;;;;;;;8.8;2.8;;;;;;;15.39;39.99609;1007.997;;;;
2020/03/14 11:25:08;;;;;;;9.2;2.7;;;;;;;15.05;40.84375;1007.98;;;;
2020/03/14 11:27:33;;;;;;;9.1;2.8;;;;;;;14.94;40.69531;1007.941;;;;
2020/03/14 11:29:58;;;;;;;8;2.6;;;;;;;14.11;41.54102;1007.952;;;;
2020/03/14 11:32:23;;;;;;;6.7;2.3;;;;;;;15.35;40.99902;1007.91;;;;
2020/03/14 11:34:48;;;;;;;10.3;3.4;;;;;;;15.51;39.79785;1007.908;;;;
2020/03/14 11:37:13;;;;;;;8.9;3;;;;;;;14.41;41.18848;1007.906;;;;
2020/03/14 11:39:38;;;;;;;9.8;2.8;;;;;;;14.39;41.63672;1007.888;;;;
2020/03/14 11:42:03;;;;;;;8.6;2.5;;;;;;;14.72;41.36719;1007.827;;;;
2020/03/14 11:44:29;;;;;;;9.3;2.6;;;;;;;14.1;40.73242;1007.829;;;;
2020/03/14 11:46:54;;;;;;;8.1;2.6;;;;;;;14.78;39.65137;1007.811;;;;
2020/03/14 11:49:19;;;;;;;9.6;2.9;;;;;;;14.56;40.91309;1007.83;;;;
2020/03/14 11:51:44;;;;;;;9.2;2.6;;;;;;;14.28;41.62695;1007.834;;;;
2020/03/14 11:54:09;;;;;;;7.9;2.4;;;;;;;15.06;40.07031;1007.781;;;;
2020/03/14 11:56:34;;;;;;;9.3;2.5;;;;;;;15.18;40.32422;1007.793;;;;
2020/03/14 11:58:59;;;;;;;7.8;2.5;;;;;;;14.75;41.3252;1007.809;;;;
2020/03/14 12:01:24;;;;;;;8.2;2.4;;;;;;;15.09;38.68457;1007.691;;;;
2020/03/14 12:03:50;;;;;;;7.6;2.5;;;;;;;15;39.54297;1007.717;;;;
2020/03/14 12:06:15;;;;;;;9.4;2.5;;;;;;;15.12;39.63574;1007.712;;;;
2020/03/14 12:08:40;;;;;;;7.3;2.7;;;;;;;14.21;40.75391;1007.723;;;;
2020/03/14 12:11:05;;;;;;;9;2.6;;;;;;;14.93;39.65332;1007.698;;;;
2020/03/14 12:13:30;;;;;;;8.1;2.6;;;;;;;15.05;39.1084;1007.693;;;;
2020/03/14 12:15:55;;;;;;;12.2;4.5;;;;;;;14.5;40.81543;1007.676;;;;
2020/03/14 12:18:20;;;;;;;10;2.8;;;;;;;14.79;40.36816;1007.648;;;;
2020/03/14 12:20:46;;;;;;;10.6;2.6;;;;;;;14.88;41.39453;1007.611;;;;
2020/03/14 12:23:11;;;;;;;8.1;2.8;;;;;;;14.43;40.57813;1007.644;;;;
2020/03/14 12:25:36;;;;;;;7.5;2.6;;;;;;;14.68;40.93652;1007.586;;;;
2020/03/14 12:28:01;;;;;;;7.4;2.4;;;;;;;14.3;41.53613;1007.592;;;;
2020/03/14 12:30:26;;;;;;;7.6;2.3;;;;;;;14.32;41.14551;1007.597;;;;
2020/03/14 12:32:51;;;;;;;8.2;2.3;;;;;;;14.71;40.55762;1007.571;;;;
2020/03/14 12:35:16;;;;;;;8.8;2.8;;;;;;;14.75;40.08789;1007.562;;;;
2020/03/14 12:37:41;;;;;;;10;2.6;;;;;;;13.85;41.95508;1007.493;;;;
2020/03/14 12:40:07;;;;;;;7.8;2.5;;;;;;;14.64;40.96777;1007.496;;;;
2020/03/14 12:42:32;;;;;;;8.5;2.6;;;;;;;14.96;41.11328;1007.495;;;;
2020/03/14 12:44:57;;;;;;;9.1;2.8;;;;;;;15.2;38.87988;1007.44;;;;
2020/03/14 12:47:22;;;;;;;8.3;2.8;;;;;;;15.46;39.25;1007.427;;;;
2020/03/14 12:49:47;;;;;;;8.7;2.6;;;;;;;15.53;39.38281;1007.403;;;;
2020/03/14 12:52:12;;;;;;;10.3;2.7;;;;;;;15.34;38.66113;1007.394;;;;
2020/03/14 12:54:37;;;;;;;7.7;2.4;;;;;;;15.4;38.93164;1007.45;;;;
2020/03/14 12:57:02;;;;;;;8.6;2.7;;;;;;;14.48;40.68652;1007.406;;;;
2020/03/14 12:59:28;;;;;;;9.3;2.5;;;;;;;14.56;41.75781;1007.418;;;;
2020/03/14 13:01:53;;;;;;;6.5;2;;;;;;;14.61;40.34082;1007.331;;;;
2020/03/14 13:04:18;;;;;;;8.1;3.3;;;;;;;14.73;40.30566;1007.309;;;;
2020/03/14 13:06:43;;;;;;;8.4;2.3;;;;;;;14.31;39.875;1007.38;;;;
2020/03/14 13:09:08;;;;;;;5.5;1.8;;;;;;;14.24;39.31445;1007.323;;;;
2020/03/14 13:11:33;;;;;;;6.7;2.1;;;;;;;13.94;39.14844;1007.373;;;;
2020/03/14 13:13:59;;;;;;;7.3;2.4;;;;;;;13.65;40.20605;1007.379;;;;
2020/03/14 13:16:24;;;;;;;6.2;2;;;;;;;13.37;41.52734;1007.401;;;;
2020/03/14 13:18:49;;;;;;;7.1;2.4;;;;;;;13.42;42.13184;1007.393;;;;
2020/03/14 13:21:14;;;;;;;8.2;2.1;;;;;;;13.44;41.52344;1007.436;;;;
2020/03/14 13:23:39;;;;;;;8.1;2.2;;;;;;;13.22;42.06641;1007.38;;;;
2020/03/14 13:26:05;;;;;;;9.6;2.4;;;;;;;13.06;43.15723;1007.364;;;;
2020/03/14 13:28:30;;;;;;;6;2.1;;;;;;;13.06;42.75391;1007.438;;;;
2020/03/14 13:30:55;;;;;;;8.1;2.3;;;;;;;13.18;42.5;1007.395;;;;
2020/03/14 13:33:20;;;;;;;7.2;2.3;;;;;;;13.27;42.74023;1007.414;;;;
2020/03/14 13:35:46;;;;;;;7.5;2.6;;;;;;;13.57;42.81543;1007.438;;;;
2020/03/14 13:38:11;;;;;;;6.8;1.8;;;;;;;13.65;41.65918;1007.446;;;;
2020/03/14 13:40:36;;;;;;;7.1;2.1;;;;;;;13.17;42.78711;1007.441;;;;
2020/03/14 13:43:01;;;;;;;6.7;1.9;;;;;;;13;43.43848;1007.466;;;;
2020/03/14 13:45:26;;;;;;;7.2;2.1;;;;;;;13.17;42.83301;1007.4;;;;
2020/03/14 13:47:51;;;;;;;7;2.3;;;;;;;13.39;41.7832;1007.413;;;;
2020/03/14 13:50:16;;;;;;;8.3;2.6;;;;;;;13.63;42.68359;1007.405;;;;
2020/03/14 13:52:42;;;;;;;6.3;1.8;;;;;;;13.39;42.3252;1007.461;;;;
2020/03/14 13:55:07;;;;;;;6;1.7;;;;;;;13.09;43.02148;1007.441;;;;
2020/03/14 13:57:32;;;;;;;5.4;1.9;;;;;;;12.55;43.49707;1007.454;;;;
2020/03/14 13:59:57;;;;;;;5.3;1.8;;;;;;;12.52;44.53027;1007.485;;;;
2020/03/14 14:02:22;;;;;;;4.3;2;;;;;;;12.6;44.60645;1007.461;;;;
2020/03/14 14:04:47;;;;;;;3.9;1.5;;;;;;;12.25;45.43262;1007.493;;;;
2020/03/14 14:07:12;;;;;;;4.9;1.6;;;;;;;12.02;45.99414;1007.505;;;;
2020/03/14 14:09:38;;;;;;;3.9;1.6;;;;;;;12.12;46.10742;1007.488;;;;
2020/03/14 14:12:02;;;;;;;4.6;1.5;;;;;;;12.1;46.19824;1007.51;;;;
2020/03/14 14:14:28;;;;;;;5.2;1.7;;;;;;;11.95;46.42285;1007.556;;;;
2020/03/14 14:16:53;;;;;;;5.4;1.6;;;;;;;11.8;46.7168;1007.576;;;;
2020/03/14 14:19:19;;;;;;;5.2;1.5;;;;;;;11.57;47.34668;1007.559;;;;